createdAt,value
2018-09-12T00:01:30.108Z,99.90
2018-09-12T00:03:59.121Z,99.90
2018-09-12T00:06:28.444Z,99.90
2018-09-12T00:08:57.706Z,99.90
2018-09-12T00:11:26.871Z,99.90
2018-09-12T00:13:56.160Z,99.90
2018-09-12T00:16:25.238Z,99.90
2018-09-12T00:18:54.438Z,99.90
2018-09-12T00:21:23.455Z,99.90
2018-09-12T00:23:52.359Z,99.90
2018-09-12T00:26:21.427Z,99.90
2018-09-12T00:28:50.484Z,99.90
2018-09-12T00:31:19.669Z,99.90
2018-09-12T00:33:49.041Z,99.90
2018-09-12T00:36:18.187Z,99.90
2018-09-12T00:38:47.312Z,99.90
2018-09-12T00:41:16.309Z,99.90
2018-09-12T00:43:45.568Z,99.90
2018-09-12T00:46:14.990Z,99.90
2018-09-12T00:48:44.220Z,99.90
2018-09-12T00:51:13.142Z,99.90
2018-09-12T00:53:42.874Z,99.90
2018-09-12T00:56:12.302Z,99.90
2018-09-12T00:58:41.433Z,99.90
2018-09-12T01:01:10.531Z,99.90
2018-09-12T01:03:39.988Z,99.90
2018-09-12T01:06:08.976Z,99.90
2018-09-12T01:08:38.037Z,99.90
2018-09-12T01:11:07.034Z,99.90
2018-09-12T01:13:35.986Z,99.90
2018-09-12T01:16:04.955Z,99.90
2018-09-12T01:18:33.963Z,99.90
2018-09-12T01:21:02.879Z,99.90
2018-09-12T01:23:32.297Z,99.90
2018-09-12T01:26:01.490Z,99.90
2018-09-12T01:28:30.590Z,99.90
2018-09-12T01:30:59.522Z,99.90
2018-09-12T01:33:28.776Z,99.90
2018-09-12T01:35:57.897Z,99.90
2018-09-12T01:38:26.926Z,99.90
2018-09-12T01:40:56.214Z,99.90
2018-09-12T01:43:25.392Z,99.90
2018-09-12T01:45:54.477Z,99.90
2018-09-12T01:48:23.384Z,99.90
2018-09-12T01:50:52.442Z,99.90
2018-09-12T01:53:21.966Z,99.90
2018-09-12T01:55:51.535Z,99.90
2018-09-12T01:58:20.539Z,99.90
2018-09-12T02:00:49.705Z,99.90
2018-09-12T02:03:18.834Z,99.90
2018-09-12T02:05:47.942Z,99.90
2018-09-12T02:08:17.177Z,99.90
2018-09-12T02:10:46.130Z,99.90
2018-09-12T02:13:15.221Z,99.90
2018-09-12T02:15:44.566Z,99.90
2018-09-12T02:18:14.034Z,99.90
2018-09-12T02:20:43.177Z,99.90
2018-09-12T02:23:12.594Z,99.90
2018-09-12T02:25:41.746Z,99.90
2018-09-12T02:28:11.054Z,99.90
2018-09-12T02:30:39.946Z,99.90
2018-09-12T02:33:09.057Z,99.90
2018-09-12T02:35:43.404Z,99.90
2018-09-12T02:38:12.532Z,99.90
2018-09-12T02:40:41.832Z,99.90
2018-09-12T02:43:10.929Z,99.90
2018-09-12T02:45:40.046Z,99.90
2018-09-12T02:48:09.181Z,99.90
2018-09-12T02:50:38.195Z,99.90
2018-09-12T02:53:07.167Z,99.90
2018-09-12T02:55:36.426Z,99.90
2018-09-12T02:58:05.341Z,99.90
2018-09-12T03:00:34.353Z,99.90
2018-09-12T03:03:03.319Z,99.90
2018-09-12T03:05:32.250Z,99.90
2018-09-12T03:08:01.340Z,99.90
2018-09-12T03:10:30.583Z,99.90
2018-09-12T03:12:59.734Z,99.90
2018-09-12T03:15:28.678Z,99.90
2018-09-12T03:17:57.610Z,99.90
2018-09-12T03:20:26.774Z,99.90
2018-09-12T03:22:56.274Z,99.90
2018-09-12T03:25:25.644Z,99.90
2018-09-12T03:27:54.941Z,99.90
2018-09-12T03:30:24.182Z,99.90
2018-09-12T03:32:53.771Z,99.90
2018-09-12T03:35:22.829Z,99.90
2018-09-12T03:37:51.776Z,99.90
2018-09-12T03:40:20.781Z,99.90
2018-09-12T03:42:49.678Z,99.90
2018-09-12T03:45:18.974Z,99.90
2018-09-12T03:47:47.942Z,99.90
2018-09-12T03:50:17.727Z,99.90
2018-09-12T03:52:46.854Z,99.90
2018-09-12T03:55:15.904Z,99.90
2018-09-12T03:57:44.976Z,99.90
2018-09-12T04:00:14.028Z,99.90
2018-09-12T04:02:43.152Z,99.90
2018-09-12T04:05:12.399Z,99.90
2018-09-12T04:07:41.442Z,99.90
2018-09-12T04:10:10.511Z,99.90
2018-09-12T04:12:39.712Z,99.90
2018-09-12T04:15:09.042Z,99.90
2018-09-12T04:17:38.180Z,99.90
2018-09-12T04:20:07.770Z,99.90
2018-09-12T04:22:36.768Z,99.90
2018-09-12T04:25:06.090Z,99.90
2018-09-12T04:27:35.378Z,99.90
2018-09-12T04:30:04.511Z,99.90
2018-09-12T04:32:33.625Z,99.90
2018-09-12T04:35:02.820Z,99.90
2018-09-12T04:37:31.917Z,99.90
2018-09-12T04:40:00.929Z,99.90
2018-09-12T04:42:29.957Z,99.90
2018-09-12T04:44:58.991Z,99.90
2018-09-12T04:47:28.122Z,99.90
2018-09-12T04:49:57.908Z,99.90
2018-09-12T04:52:27.085Z,99.90
2018-09-12T04:54:56.144Z,99.90
2018-09-12T04:57:25.202Z,99.90
2018-09-12T04:59:54.476Z,99.90
2018-09-12T05:02:23.641Z,99.90
2018-09-12T05:04:52.936Z,99.90
2018-09-12T05:07:22.156Z,99.90
2018-09-12T05:09:51.333Z,99.90
2018-09-12T05:12:20.276Z,99.90
2018-09-12T05:14:49.546Z,99.90
2018-09-12T05:17:19.346Z,99.90
2018-09-12T05:19:48.601Z,99.90
2018-09-12T05:22:17.678Z,99.90
2018-09-12T05:24:46.977Z,99.90
2018-09-12T05:27:16.053Z,99.90
2018-09-12T05:29:45.405Z,99.90
2018-09-12T05:32:14.447Z,99.90
2018-09-12T05:34:43.720Z,99.90
2018-09-12T05:37:12.705Z,99.90
2018-09-12T05:39:41.704Z,99.90
2018-09-12T05:42:10.756Z,99.90
2018-09-12T05:44:39.873Z,99.90
2018-09-12T05:47:09.165Z,99.90
2018-09-12T05:49:38.261Z,99.90
2018-09-12T05:52:07.311Z,99.90
2018-09-12T05:54:36.446Z,99.90
2018-09-12T05:57:05.681Z,99.90
2018-09-12T05:59:34.882Z,99.90
2018-09-12T06:02:04.186Z,99.90
2018-09-12T06:04:33.136Z,99.90
2018-09-12T06:07:02.212Z,99.90
2018-09-12T06:09:31.158Z,99.90
2018-09-12T06:12:00.182Z,99.90
2018-09-12T06:14:29.407Z,99.90
2018-09-12T06:16:58.491Z,99.90
2018-09-12T06:19:27.700Z,99.90
2018-09-12T06:21:56.761Z,99.90
2018-09-12T06:24:25.741Z,99.70
2018-09-12T06:26:55.036Z,99.60
2018-09-12T06:29:24.325Z,99.70
2018-09-12T06:31:53.368Z,99.30
2018-09-12T06:34:22.539Z,99.00
2018-09-12T06:36:51.941Z,98.70
2018-09-12T06:39:20.824Z,98.70
2018-09-12T06:41:50.364Z,98.80
2018-09-12T06:44:19.570Z,98.30
2018-09-12T06:46:48.532Z,98.20
2018-09-12T06:49:17.741Z,98.10
2018-09-12T06:51:46.827Z,97.70
2018-09-12T06:54:15.723Z,97.50
2018-09-12T06:56:45.275Z,97.60
2018-09-12T06:59:14.402Z,97.70
2018-09-12T07:01:43.449Z,97.60
2018-09-12T07:04:12.632Z,97.30
2018-09-12T07:06:41.590Z,97.10
2018-09-12T07:09:11.538Z,96.70
2018-09-12T07:11:40.870Z,96.40
2018-09-12T07:14:10.927Z,96.20
2018-09-12T07:16:40.482Z,95.70
2018-09-12T07:19:09.418Z,95.10
2018-09-12T07:21:38.652Z,94.40
2018-09-12T07:24:07.787Z,94.40
2018-09-12T07:26:37.097Z,94.40
2018-09-12T07:29:06.939Z,94.20
2018-09-12T07:31:36.160Z,93.90
2018-09-12T07:34:05.381Z,93.40
2018-09-12T07:36:34.627Z,93.60
2018-09-12T07:39:04.876Z,93.00
2018-09-12T07:41:34.472Z,92.70
2018-09-12T07:44:03.787Z,92.20
2018-09-12T07:46:33.101Z,92.00
2018-09-12T07:49:02.222Z,91.90
2018-09-12T07:51:31.249Z,91.80
2018-09-12T07:54:00.365Z,91.20
2018-09-12T07:56:29.687Z,90.70
2018-09-12T07:58:58.888Z,90.50
2018-09-12T08:01:28.191Z,90.20
2018-09-12T08:03:58.046Z,90.20
2018-09-12T08:06:27.175Z,89.30
2018-09-12T08:08:56.458Z,87.00
2018-09-12T08:11:25.612Z,86.40
2018-09-12T08:13:54.571Z,86.00
2018-09-12T08:16:23.647Z,85.50
2018-09-12T08:18:52.751Z,85.00
2018-09-12T08:21:21.960Z,80.00
2018-09-12T08:23:52.254Z,63.60
2018-09-12T08:26:21.609Z,51.20
2018-09-12T08:28:50.398Z,45.80
2018-09-12T08:31:19.765Z,39.10
2018-09-12T08:33:48.661Z,35.30
2018-09-12T08:36:17.987Z,33.90
2018-09-12T08:38:47.035Z,31.80
2018-09-12T08:41:16.147Z,29.00
2018-09-12T08:43:45.130Z,27.20
2018-09-12T08:46:14.541Z,27.20
2018-09-12T08:48:43.875Z,28.20
2018-09-12T08:51:14.168Z,30.20
2018-09-12T08:53:43.393Z,33.60
2018-09-12T08:56:12.597Z,36.90
2018-09-12T08:58:41.807Z,40.40
2018-09-12T09:01:11.026Z,43.50
2018-09-12T09:03:40.429Z,46.50
2018-09-12T09:06:10.091Z,49.50
2018-09-12T09:08:39.373Z,51.90
2018-09-12T09:11:08.616Z,53.90
2018-09-12T09:13:37.570Z,55.30
2018-09-12T09:16:06.496Z,56.50
2018-09-12T09:18:35.862Z,58.30
2018-09-12T09:21:04.869Z,59.90
2018-09-12T09:23:34.315Z,61.20
2018-09-12T09:26:03.443Z,62.20
2018-09-12T09:28:33.631Z,63.60
2018-09-12T09:31:02.838Z,64.60
2018-09-12T09:33:33.165Z,65.90
2018-09-12T09:36:02.166Z,66.30
2018-09-12T09:38:31.162Z,67.00
2018-09-12T09:41:00.248Z,68.20
2018-09-12T09:43:29.476Z,68.50
2018-09-12T09:45:58.851Z,69.20
2018-09-12T09:48:28.193Z,69.70
2018-09-12T09:50:57.164Z,70.40
2018-09-12T09:53:26.255Z,70.90
2018-09-12T09:55:55.645Z,71.20
2018-09-12T09:58:24.709Z,71.60
2018-09-12T10:00:58.957Z,72.00
2018-09-12T10:03:33.154Z,72.10
2018-09-12T10:06:07.526Z,71.40
2018-09-12T10:08:41.907Z,70.80
2018-09-12T10:11:11.133Z,71.20
2018-09-12T10:13:40.189Z,71.40
2018-09-12T10:16:09.519Z,70.80
2018-09-12T10:18:38.554Z,71.20
2018-09-12T10:21:07.698Z,71.80
2018-09-12T10:23:37.282Z,72.20
2018-09-12T10:26:06.726Z,72.00
2018-09-12T10:28:35.768Z,72.30
2018-09-12T10:31:04.913Z,72.20
2018-09-12T10:33:34.158Z,72.30
2018-09-12T10:36:03.211Z,71.40
2018-09-12T10:38:32.447Z,68.30
2018-09-12T10:41:01.531Z,64.80
2018-09-12T10:43:30.505Z,62.60
2018-09-12T10:45:59.568Z,60.40
2018-09-12T10:48:28.516Z,61.50
2018-09-12T10:50:57.558Z,62.70
2018-09-12T10:53:26.581Z,64.10
2018-09-12T10:55:55.737Z,64.60
2018-09-12T10:58:24.840Z,65.80
2018-09-12T11:00:54.132Z,67.20
2018-09-12T11:03:23.407Z,68.60
2018-09-12T11:05:52.449Z,68.40
2018-09-12T11:08:21.393Z,69.00
2018-09-12T11:10:50.330Z,68.70
2018-09-12T11:13:19.995Z,68.50
2018-09-12T11:15:49.315Z,67.00
2018-09-12T11:18:18.281Z,65.90
2018-09-12T11:20:47.214Z,62.70
2018-09-12T11:23:16.525Z,61.10
2018-09-12T11:25:45.537Z,58.50
2018-09-12T11:28:14.907Z,57.90
2018-09-12T11:30:43.777Z,56.10
2018-09-12T11:33:13.130Z,53.50
2018-09-12T11:35:42.222Z,53.00
2018-09-12T11:38:11.142Z,51.50
2018-09-12T11:40:40.261Z,48.70
2018-09-12T11:43:09.581Z,48.20
2018-09-12T11:45:38.760Z,49.40
2018-09-12T11:48:07.980Z,50.50
2018-09-12T11:50:37.133Z,51.20
2018-09-12T11:53:06.578Z,49.80
2018-09-12T11:55:35.818Z,50.60
2018-09-12T11:58:04.904Z,51.90
2018-09-12T12:00:34.284Z,53.10
2018-09-12T12:03:03.203Z,52.80
2018-09-12T12:05:32.338Z,52.60
2018-09-12T12:08:01.490Z,51.80
2018-09-12T12:10:30.677Z,52.90
2018-09-12T12:12:59.781Z,54.00
2018-09-12T12:15:28.903Z,54.10
2018-09-12T12:17:58.167Z,55.50
2018-09-12T12:20:27.157Z,56.90
2018-09-12T12:22:56.662Z,58.10
2018-09-12T12:25:25.677Z,59.30
2018-09-12T12:27:55.090Z,59.70
2018-09-12T12:30:24.301Z,59.70
2018-09-12T12:32:53.312Z,59.00
2018-09-12T12:35:22.564Z,59.40
2018-09-12T12:37:51.826Z,58.50
2018-09-12T12:40:21.021Z,58.40
2018-09-12T12:42:50.442Z,56.80
2018-09-12T12:45:19.449Z,55.70
2018-09-12T12:47:48.518Z,54.30
2018-09-12T12:50:17.593Z,53.60
2018-09-12T12:52:46.662Z,54.30
2018-09-12T12:55:15.807Z,54.20
2018-09-12T12:57:45.061Z,54.80
2018-09-12T13:00:14.249Z,54.80
2018-09-12T13:02:43.396Z,55.50
2018-09-12T13:05:12.472Z,55.50
2018-09-12T13:07:41.906Z,56.30
2018-09-12T13:10:11.053Z,56.80
2018-09-12T13:12:40.052Z,58.20
2018-09-12T13:15:09.720Z,58.10
2018-09-12T13:17:38.657Z,58.30
2018-09-12T13:20:08.114Z,58.60
2018-09-12T13:22:37.163Z,59.40
2018-09-12T13:25:06.326Z,58.90
2018-09-12T13:27:35.631Z,57.60
2018-09-12T13:30:05.301Z,56.00
2018-09-12T13:32:34.436Z,56.20
2018-09-12T13:35:03.351Z,55.70
2018-09-12T13:37:32.330Z,55.20
2018-09-12T13:40:01.432Z,54.90
2018-09-12T13:42:30.862Z,55.70
2018-09-12T13:45:00.050Z,54.60
2018-09-12T13:47:30.017Z,55.10
2018-09-12T13:49:59.590Z,55.10
2018-09-12T13:52:28.574Z,55.00
2018-09-12T13:54:58.749Z,55.00
2018-09-12T13:57:28.068Z,55.30
2018-09-12T13:59:57.272Z,55.50
2018-09-12T14:02:26.513Z,55.80
2018-09-12T14:04:55.752Z,56.00
2018-09-12T14:07:24.893Z,56.30
2018-09-12T14:09:54.428Z,56.30
2018-09-12T14:12:23.705Z,56.20
2018-09-12T14:14:53.055Z,56.40
2018-09-12T14:17:23.836Z,56.90
2018-09-12T14:19:53.597Z,57.00
2018-09-12T14:22:22.700Z,57.00
2018-09-12T14:24:51.953Z,57.60
2018-09-12T14:27:21.446Z,58.80
2018-09-12T14:29:50.582Z,58.50
2018-09-12T14:32:19.847Z,59.10
2018-09-12T14:34:48.769Z,58.80
2018-09-12T14:37:18.620Z,59.20
2018-09-12T14:39:47.720Z,59.80
2018-09-12T14:42:16.792Z,60.10
2018-09-12T14:44:46.304Z,59.90
2018-09-12T14:47:15.431Z,60.30
2018-09-12T14:49:44.839Z,60.90
2018-09-12T14:52:13.982Z,60.90
2018-09-12T14:54:43.262Z,60.70
2018-09-12T14:57:12.769Z,60.50
2018-09-12T14:59:42.002Z,60.30
2018-09-12T15:02:11.061Z,60.20
2018-09-12T15:04:40.432Z,60.50
2018-09-12T15:07:09.492Z,59.90
2018-09-12T15:09:39.430Z,59.40
2018-09-12T15:12:08.612Z,58.40
2018-09-12T15:14:37.691Z,58.90
2018-09-12T15:17:07.205Z,59.00
2018-09-12T15:19:36.435Z,59.40
2018-09-12T15:22:05.810Z,59.60
2018-09-12T15:24:34.787Z,60.10
2018-09-12T15:27:04.506Z,59.80
2018-09-12T15:29:33.322Z,60.00
2018-09-12T15:32:02.437Z,60.20
2018-09-12T15:34:31.770Z,59.80
2018-09-12T15:37:00.619Z,60.00
2018-09-12T15:39:29.750Z,59.80
2018-09-12T15:41:58.655Z,59.90
2018-09-12T15:44:27.634Z,59.70
2018-09-12T15:46:56.884Z,59.10
2018-09-12T15:49:25.910Z,59.20
2018-09-12T15:51:55.037Z,58.50
2018-09-12T15:54:23.993Z,58.40
2018-09-12T15:56:52.890Z,58.30
2018-09-12T15:59:21.907Z,58.00
2018-09-12T16:01:51.195Z,58.60
2018-09-12T16:04:20.625Z,58.10
2018-09-12T16:06:50.231Z,58.00
2018-09-12T16:09:19.249Z,57.80
2018-09-12T16:11:48.280Z,58.10
2018-09-12T16:14:17.541Z,58.40
2018-09-12T16:16:46.741Z,58.40
2018-09-12T16:19:16.082Z,58.50
2018-09-12T16:21:45.093Z,57.80
2018-09-12T16:24:14.202Z,58.00
2018-09-12T16:26:43.389Z,58.30
2018-09-12T16:29:13.314Z,57.80
2018-09-12T16:31:42.622Z,57.80
2018-09-12T16:34:11.537Z,57.80
2018-09-12T16:36:40.790Z,57.70
2018-09-12T16:39:11.931Z,57.90
2018-09-12T16:41:41.943Z,57.10
2018-09-12T16:44:10.848Z,57.10
2018-09-12T16:46:39.961Z,56.80
2018-09-12T16:49:09.214Z,56.70
2018-09-12T16:51:38.340Z,56.70
2018-09-12T16:54:07.632Z,57.00
2018-09-12T16:56:36.756Z,57.10
2018-09-12T16:59:05.838Z,57.20
2018-09-12T17:01:34.925Z,57.30
2018-09-12T17:04:04.433Z,57.50
2018-09-12T17:06:33.494Z,57.50
2018-09-12T17:09:03.129Z,57.70
2018-09-12T17:11:32.649Z,58.00
2018-09-12T17:14:01.518Z,57.60
2018-09-12T17:16:30.670Z,57.80
2018-09-12T17:19:00.336Z,58.40
2018-09-12T17:21:30.449Z,58.20
2018-09-12T17:23:59.822Z,58.70
2018-09-12T17:26:29.924Z,59.00
2018-09-12T17:28:59.066Z,59.10
2018-09-12T17:31:28.306Z,59.10
2018-09-12T17:33:57.197Z,59.40
2018-09-12T17:36:27.327Z,59.40
2018-09-12T17:38:56.782Z,59.50
2018-09-12T17:41:25.809Z,59.80
2018-09-12T17:43:54.859Z,59.70
2018-09-12T17:46:24.083Z,59.80
2018-09-12T17:48:53.026Z,59.50
2018-09-12T17:51:23.091Z,59.50
2018-09-12T17:53:52.327Z,59.60
2018-09-12T17:56:23.365Z,59.50
2018-09-12T17:58:52.821Z,59.50
2018-09-12T18:01:22.137Z,59.60
2018-09-12T18:03:51.441Z,59.70
2018-09-12T18:06:20.625Z,59.80
2018-09-12T18:08:50.127Z,59.90
2018-09-12T18:11:19.873Z,59.90
2018-09-12T18:13:49.044Z,60.10
2018-09-12T18:16:18.514Z,60.30
2018-09-12T18:18:47.861Z,64.30
2018-09-12T18:21:17.403Z,64.60
2018-09-12T18:23:46.931Z,64.10
2018-09-12T18:26:16.470Z,66.00
2018-09-12T18:28:46.000Z,64.10
2018-09-12T18:31:15.274Z,63.80
2018-09-12T18:33:44.550Z,63.30
2018-09-12T18:36:13.952Z,63.60
2018-09-12T18:38:43.243Z,64.30
2018-09-12T18:41:12.398Z,63.30
2018-09-12T18:43:41.657Z,64.00
2018-09-12T18:46:10.949Z,63.80
2018-09-12T18:48:40.602Z,64.90
2018-09-12T18:51:10.677Z,64.70
2018-09-12T18:53:40.809Z,65.40
2018-09-12T18:56:09.962Z,66.00
2018-09-12T18:58:39.387Z,65.70
2018-09-12T19:01:08.299Z,66.10
2018-09-12T19:03:37.551Z,66.50
2018-09-12T19:06:07.411Z,66.90
2018-09-12T19:08:36.926Z,67.40
2018-09-12T19:11:06.082Z,67.90
2018-09-12T19:13:35.998Z,67.70
2018-09-12T19:16:05.398Z,68.20
2018-09-12T19:18:34.956Z,68.50
2018-09-12T19:21:04.068Z,68.30
2018-09-12T19:23:33.558Z,68.50
2018-09-12T19:26:02.943Z,68.40
2018-09-12T19:28:32.275Z,68.60
2018-09-12T19:31:01.506Z,68.70
2018-09-12T19:33:30.450Z,68.80
2018-09-12T19:35:59.587Z,68.80
2018-09-12T19:38:28.876Z,68.50
2018-09-12T19:40:58.010Z,68.50
2018-09-12T19:43:27.097Z,68.40
2018-09-12T19:45:56.485Z,68.50
2018-09-12T19:48:25.749Z,68.70
2018-09-12T19:50:54.950Z,68.80
2018-09-12T19:53:24.358Z,68.50
2018-09-12T19:55:53.805Z,68.40
2018-09-12T19:58:23.153Z,68.50
2018-09-12T20:00:52.104Z,68.60
2018-09-12T20:03:21.126Z,68.30
2018-09-12T20:05:50.318Z,67.90
2018-09-12T20:08:19.739Z,68.10
2018-09-12T20:10:48.859Z,68.30
2018-09-12T20:13:18.012Z,67.60
2018-09-12T20:15:47.143Z,67.70
2018-09-12T20:18:16.750Z,68.10
2018-09-12T20:20:46.017Z,68.10
2018-09-12T20:23:15.039Z,68.20
2018-09-12T20:25:44.097Z,68.10
2018-09-12T20:28:14.163Z,68.50
2018-09-12T20:30:43.333Z,68.40
2018-09-12T20:33:12.758Z,68.60
2018-09-12T20:35:42.093Z,68.40
2018-09-12T20:38:11.051Z,68.80
2018-09-12T20:40:40.378Z,68.80
2018-09-12T20:43:10.832Z,68.70
2018-09-12T20:45:39.997Z,68.80
2018-09-12T20:48:09.165Z,69.10
2018-09-12T20:50:38.526Z,68.80
2018-09-12T20:53:07.832Z,68.80
2018-09-12T20:55:36.701Z,68.80
2018-09-12T20:58:06.108Z,69.20
2018-09-12T21:00:35.427Z,69.10
2018-09-12T21:03:05.203Z,69.60
2018-09-12T21:05:34.629Z,69.00
2018-09-12T21:08:04.393Z,69.40
2018-09-12T21:10:33.474Z,69.50
2018-09-12T21:13:03.005Z,69.00
2018-09-12T21:15:35.675Z,69.10
2018-09-12T21:18:05.004Z,68.90
2018-09-12T21:20:34.609Z,69.70
2018-09-12T21:23:03.854Z,68.60
2018-09-12T21:25:33.035Z,69.00
2018-09-12T21:28:02.436Z,68.80
2018-09-12T21:30:32.653Z,68.90
2018-09-12T21:33:01.890Z,68.80
2018-09-12T21:35:30.982Z,68.70
2018-09-12T21:38:00.204Z,68.90
2018-09-12T21:40:30.431Z,68.90
2018-09-12T21:42:59.673Z,68.90
2018-09-12T21:45:28.613Z,68.50
2018-09-12T21:47:57.597Z,68.70
2018-09-12T21:50:26.833Z,68.90
2018-09-12T21:52:56.009Z,68.80
2018-09-12T21:55:25.237Z,68.70
2018-09-12T21:57:54.402Z,68.80
2018-09-12T22:00:23.533Z,69.30
2018-09-12T22:02:52.869Z,69.20
2018-09-12T22:05:21.913Z,69.20
2018-09-12T22:07:51.528Z,69.20
2018-09-12T22:10:20.859Z,69.30
2018-09-12T22:12:54.367Z,69.30
2018-09-12T22:15:23.638Z,69.60
2018-09-12T22:17:52.886Z,69.50
2018-09-12T22:20:22.259Z,70.10
2018-09-12T22:22:51.445Z,69.80
2018-09-12T22:25:20.768Z,69.50
2018-09-12T22:27:49.895Z,69.70
2018-09-12T22:30:18.842Z,70.60
2018-09-12T22:32:48.445Z,69.90
2018-09-12T22:35:17.533Z,69.50
2018-09-12T22:37:46.826Z,69.70
2018-09-12T22:40:15.967Z,69.80
2018-09-12T22:42:44.980Z,69.80
2018-09-12T22:45:14.097Z,70.00
2018-09-12T22:47:43.626Z,70.10
2018-09-12T22:50:12.699Z,69.90
2018-09-12T22:52:42.129Z,70.10
2018-09-12T22:55:11.272Z,70.00
2018-09-12T22:57:40.853Z,70.20
2018-09-12T23:00:10.422Z,71.00
2018-09-12T23:02:39.336Z,70.20
2018-09-12T23:05:08.507Z,70.00
2018-09-12T23:07:37.549Z,70.10
2018-09-12T23:10:06.697Z,70.10
2018-09-12T23:12:35.713Z,69.90
2018-09-12T23:15:04.791Z,70.10
2018-09-12T23:17:33.972Z,70.00
2018-09-12T23:20:03.436Z,69.90
2018-09-12T23:22:32.568Z,69.70
2018-09-12T23:25:01.503Z,69.90
2018-09-12T23:27:30.894Z,69.80
2018-09-12T23:30:00.010Z,69.50
2018-09-12T23:32:29.264Z,69.80
2018-09-12T23:34:58.454Z,69.60
2018-09-12T23:37:27.422Z,70.00
2018-09-12T23:39:56.894Z,70.00
2018-09-12T23:42:26.241Z,69.60
2018-09-12T23:44:55.323Z,70.10
2018-09-12T23:47:24.453Z,69.90
2018-09-12T23:49:53.986Z,69.90
2018-09-12T23:52:23.110Z,69.90
2018-09-12T23:54:52.391Z,70.00
2018-09-12T23:57:21.900Z,70.30
2018-09-12T23:59:50.786Z,70.00
